McGaheysville, Virginia
Current Conditions -  °F | °C
As of 1:55 PM on Thursday 30 Oct 2014 (Local Time) from KSHD Reporting Station
Overcast Overcast  
Wind Chill: 52°   Ceiling: 4700
Heat Index: 52°   Visibility: 10mi
Dew Point: 37°   Wind: 7mph
Humidity: 55%   Direction: 60°ENE
Pressure: 30.08"   Gusts: NA
Location:  38.37°N, 78.73°W
Report Text: KSHD 301755Z AUTO 06006KT 10SM OVC047 11/03 A3008 RMK AO2 T01120025 10113 20008
Loading
Personal Weather Stations






























Interactive Weather Map New forecast layout! Learn more

10-Day Weather Forecast

Advertisements
Track Severe Weather on mobile